Bay Area Logo

San Jose, CA Condo Real Estate Listings

655 Total Real Estate Listings * Click on table heading to sort
Date Posted Property Type Style Address Price Living Area Lot Size Price/Sq Ft.
2018-07-21 Condo 1204 Coyote Creek Court San Jose, CA 95116 $439,000 633 sq. ft. 2,614 sq. ft. $694
2018-07-21 Condo 4845 Pine Forest Place San Jose, CA 95118 $778,888 1,026 sq. ft. 1,307 sq. ft. $759
2018-07-20 Condo 1151 Sunny Court San Jose, CA 95116 $625,000 1,250 sq. ft. 436 sq. ft. $500
2018-07-20 Condo 7110 Rainbow Drive San Jose, CA 95129 $805,000 968 sq. ft. 18,731 sq. ft. $832
2018-07-20 Condo 962 Lakeshire Court San Jose, CA 95126 $875,000 1,350 sq. ft. 1,307 sq. ft. $648
2018-07-20 Condo 403 Don Fernando Way San Jose, CA 95123 $599,000 1,156 sq. ft. 871 sq. ft. $518
2018-07-20 Condo 245 Kenbrook Circle San Jose, CA 95111 $485,000 880 sq. ft. 4,792 sq. ft. $551
2018-07-20 Condo 1047 Foxchase Drive San Jose, CA 95123 $650,000 1,154 sq. ft. 4,792 sq. ft. $563
2018-07-20 Condo Traditional 1261 Formosa Drive San Jose, CA 95131 $1,275,000 1,666 sq. ft. 3,049 sq. ft. $765
2018-07-20 Condo Traditional 7202 Via Carrizo San Jose, CA 95135 $800,000 1,815 sq. ft. 4,356 sq. ft. $441
2018-07-20 Condo 460 Auburn Way San Jose, CA 95129 $669,000 924 sq. ft. $724
2018-07-20 Condo 1195 Foxchase Drive San Jose, CA 95123 $528,000 1,066 sq. ft. 7,405 sq. ft. $495
2018-07-20 Condo 1836 Midnight Circle San Jose, CA 95133 $888,888 1,391 sq. ft. 436 sq. ft. $639
2018-07-19 Condo 417 Don Seville Court San Jose, CA 95123 $635,000 1,156 sq. ft. 871 sq. ft. $549
2018-07-19 Condo Contemporary 771 Modern Ice Drive San Jose, CA 95112 $898,000 1,391 sq. ft. 871 sq. ft. $646
2018-07-19 Condo Contemporary 3980 Mosher Drive San Jose, CA 95135 $1,098,000 1,456 sq. ft. 2,614 sq. ft. $754
2018-07-19 Condo 1524 Marburg Way San Jose, CA 95133 $949,000 1,663 sq. ft. 871 sq. ft. $571
2018-07-19 Condo 8699 Lomas Azules Place San Jose, CA 95135 $999,900 2,209 sq. ft. 436 sq. ft. $453
2018-07-19 Condo Traditional 9069 Village View Loop San Jose, CA 95135 $1,195,000 2,248 sq. ft. 2,614 sq. ft. $532
2018-07-19 Condo Traditional 3323 Cannongate Court San Jose, CA 95121 $644,888 1,320 sq. ft. 1,742 sq. ft. $489
2018-07-19 Condo Contemporary 1111 Avenida Benito San Jose, CA 95131 $1,188,000 1,739 sq. ft. 871 sq. ft. $683
2018-07-19 Condo 148 3rd Street San Jose, CA 95112 $829,000 1,458 sq. ft. 871 sq. ft. $569
2018-07-19 Condo 1497 Glenpine Drive San Jose, CA 95125 $895,000 1,008 sq. ft. 1,742 sq. ft. $888
2018-07-19 Condo Contemporary 1379 Mercado Way San Jose, CA 95131 $869,800 1,171 sq. ft. 436 sq. ft. $743
2018-07-19 Condo 4295 Voltaire Street San Jose, CA 95135 $1,098,890 1,532 sq. ft. 2,178 sq. ft. $717
2018-07-19 Condo Contemporary 144 3rd Street San Jose, CA 95112 $720,000 1,023 sq. ft. 436 sq. ft. $704
2018-07-19 Condo Contemporary 142 3rd Street San Jose, CA 95112 $995,000 1,962 sq. ft. 871 sq. ft. $507
2018-07-19 Condo Mediterranean 73 Montecito Vista Drive San Jose, CA 95111 $789,000 1,303 sq. ft. 436 sq. ft. $606
2018-07-19 Condo 7150 Rainbow Drive San Jose, CA 95129 $799,000 1,050 sq. ft. 28,750 sq. ft. $761
2018-07-19 Condo 2861 Bascom Avenue San Jose, CA 95124 $680,000 841 sq. ft. 871 sq. ft. $809
2018-07-18 Condo 123 Escazu Court San Jose, CA 95116 $590,000 1,474 sq. ft. 871 sq. ft. $400
2018-07-18 Condo 5425 Colony Green Drive San Jose, CA 95123 $625,000 942 sq. ft. 871 sq. ft. $663
2018-07-18 Condo 1898 Meridian Ave San Jose, CA 95125 $689,000 1,116 sq. ft. 1,307 sq. ft. $617
2018-07-18 Condo Traditional 5227 Cribari Dale San Jose, CA 95135 $459,000 1,223 sq. ft. 6,098 sq. ft. $375
2018-07-18 Condo 5047 Grey Feather Circle San Jose, CA 95136 $710,000 1,268 sq. ft. 3,920 sq. ft. $560
2018-07-18 Condo Contemporary 414 Galleria Drive San Jose, CA 95134 $990,000 1,401 sq. ft. 15,246 sq. ft. $707
2018-07-18 Condo 1688 Lorient Terrace San Jose, CA 95133 $995,000 1,778 sq. ft. 871 sq. ft. $560
2018-07-18 Condo Spanish 611 La Maison Drive San Jose, CA 95128 $799,000 1,104 sq. ft. 4,356 sq. ft. $724
2018-07-18 Condo 400 1st Street San Jose, CA 95112 $725,000 1,113 sq. ft. 436 sq. ft. $651
2018-07-18 Condo 7049 Banff Springs Court San Jose, CA 95139 $749,000 1,656 sq. ft. 2,178 sq. ft. $452
2018-07-18 Condo 3 Esfahan Drive San Jose, CA 95111 $949,000 1,838 sq. ft. 871 sq. ft. $516
2018-07-18 Condo Traditional 304 Tradewinds Drive San Jose, CA 95123 $479,000 959 sq. ft. 871 sq. ft. $499
2018-07-18 Condo 831 Gilchrist Walkway Drive San Jose, CA 95133 $488,888 903 sq. ft. 6,534 sq. ft. $541
2018-07-18 Condo 55 Muirfield Court San Jose, CA 95116 $559,000 1,054 sq. ft. 436 sq. ft. $530
2018-07-17 Condo 6917 Rodling Drive San Jose, CA 95138 $780,000 1,377 sq. ft. 871 sq. ft. $566
2018-07-17 Condo 30 Julian Street San Jose, CA 95112 $1,250,000 1,949 sq. ft. 1,194 sq. ft. $641
2018-07-17 Condo 382 Casselino Drive San Jose, CA 95136 $1,289,000 2,522 sq. ft. 2,614 sq. ft. $511
2018-07-17 Condo 2721 Lone Bluff Way San Jose, CA 95111 $489,000 867 sq. ft. 436 sq. ft. $564
2018-07-17 Condo 553 Shadow Dance Drive San Jose, CA 95110 $679,950 871 sq. ft. 871 sq. ft. $781
2018-07-17 Condo 1087 Longshore Drive San Jose, CA 95128 $879,000 1,758 sq. ft. 3,049 sq. ft. $500
2018-07-17 Condo 702 Avenue One San Jose, CA 95123 $1,038,000 2,205 sq. ft. 1,307 sq. ft. $471
2018-07-17 Condo Contemporary 2170 Amberwood Lane San Jose, CA 95132 $725,000 1,121 sq. ft. 1,307 sq. ft. $647
2018-07-17 Condo 2508 Heron Court San Jose, CA 95133 $748,000 1,270 sq. ft. 436 sq. ft. $589
2018-07-17 Condo Contemporary 2170 Amberwood Ln San Jose, CA 95132 $725,000 1,121 sq. ft. 1,307 sq. ft. $647
2018-07-17 Condo Contemporary 610 Maestro Court San Jose, CA 95134 $648,000 776 sq. ft. 1,307 sq. ft. $835
2018-07-17 Condo 3284 Kimber Court San Jose, CA 95124 $599,800 886 sq. ft. 871 sq. ft. $677
2018-07-17 Condo 6151 Camino Verde Drive San Jose, CA 95119 $595,000 992 sq. ft. 871 sq. ft. $600
2018-07-17 Condo 2310 Samaritan Place San Jose, CA 95124 $605,000 903 sq. ft. 3,049 sq. ft. $670
2018-07-17 Condo 1369 Phelps Avenue San Jose, CA 95117 $450,000 840 sq. ft. 1,106 sq. ft. $536
2018-07-16 Condo 5525 Sean Circle San Jose, CA 95123 $675,000 1,245 sq. ft. 1,307 sq. ft. $542
2018-07-16 Condo 49 Bassett Street San Jose, CA 95110 $899,000 2,008 sq. ft. 5,663 sq. ft. $448
2018-07-16 Condo Contemporary 1543 Hummingbird Place San Jose, CA 95129 $1,799,000 1,743 sq. ft. 0 sq. ft. $1,032
2018-07-16 Condo Traditional 1339 Shawn Drive San Jose, CA 95118 $499,000 810 sq. ft. 6,970 sq. ft. $616
2018-07-15 Condo 2664 Senter Road San Jose, CA 95111 $559,000 1,020 sq. ft. 871 sq. ft. $548
2018-07-15 Condo 351 Tower Hill Avenue San Jose, CA 95136 $978,000 2,356 sq. ft. 6,098 sq. ft. $415
2018-07-15 Condo 4020 Williams Road San Jose, CA 95117 $788,000 1,053 sq. ft. 871 sq. ft. $748
2018-07-14 Condo 925 The Alameda, #119 San Jose, CA 95126 $799,000 1,068 sq. ft. 3,485 sq. ft. $748
2018-07-14 Condo 605 Balfour Drive San Jose, CA 95111 $465,000 672 sq. ft. 871 sq. ft. $692
2018-07-14 Condo Contemporary 2750 Ferrara Circle San Jose, CA 95111 $989,000 2,042 sq. ft. 1,307 sq. ft. $484
2018-07-14 Condo 5396 Deodara Grove Court San Jose, CA 95123 $599,950 1,156 sq. ft. 871 sq. ft. $519
2018-07-14 Condo 7060 Cypress Point Court San Jose, CA 95139 $789,000 1,820 sq. ft. 2,178 sq. ft. $434
2018-07-13 Condo Contemporary 5951 Sunstone Drive San Jose, CA 95123 $800,880 1,261 sq. ft. $635
2018-07-13 Condo Contemporary 5951 Sunstone Drive San Jose, CA 95123 $900,880 1,706 sq. ft. $528
2018-07-13 Condo Craftsman 2797 Ferrara Circle San Jose, CA 95111 $966,888 1,856 sq. ft. 871 sq. ft. $521
2018-07-13 Condo 375 Reading Place San Jose, CA 95123 $1,100,000 2,209 sq. ft. 871 sq. ft. $498
2018-07-13 Condo 230 Race Street San Jose, CA 95126 $598,888 740 sq. ft. 871 sq. ft. $809
2018-07-13 Condo Craftsman 2797 Ferrara Cir San Jose, CA 95111 $966,888 1,856 sq. ft. 871 sq. ft. $521
2018-07-13 Condo 1731 Braddock Court San Jose, CA 95125 $639,000 841 sq. ft. 1,307 sq. ft. $760
2018-07-13 Condo 1030 Owsley Avenue San Jose, CA 95122 $655,000 1,036 sq. ft. 1,307 sq. ft. $632
2018-07-13 Condo 2727 Lavender Terrace San Jose, CA 95111 $666,000 1,405 sq. ft. 1,307 sq. ft. $474
2018-07-13 Condo 1063 Summershore Court San Jose, CA 95122 $578,888 1,094 sq. ft. 436 sq. ft. $529
2018-07-13 Condo 1802 Schweppes Court San Jose, CA 95132 $688,000 988 sq. ft. 871 sq. ft. $696
2018-07-13 Condo 966 Silicon Drive San Jose, CA 95126 $799,000 1,105 sq. ft. 1,307 sq. ft. $723
2018-07-13 Condo 3161 Payne Avenue San Jose, CA 95117 $875,000 1,300 sq. ft. 1,742 sq. ft. $673
2018-07-13 Condo Contemporary 2723 Buena View Ct San Jose, CA 95121 $699,000 1,050 sq. ft. 436 sq. ft. $666
2018-07-13 Condo 865 Basking Lane San Jose, CA 95138 $799,988 1,512 sq. ft. 871 sq. ft. $529
2018-07-13 Condo 1630 Lorient Terrace San Jose, CA 95133 $898,888 1,292 sq. ft. 1,307 sq. ft. $696
2018-07-13 Condo 224 Vista Roma Way San Jose, CA 95136 $899,000 1,788 sq. ft. 3,049 sq. ft. $503
2018-07-13 Condo Contemporary 636 Teatree Court San Jose, CA 95128 $528,000 658 sq. ft. 871 sq. ft. $802
2018-07-12 Condo 2268 Warfield Way San Jose, CA 95122 $609,999 1,125 sq. ft. 871 sq. ft. $542
2018-07-12 Condo 795 Golden Creek Terrace San Jose, CA 95111 $699,000 1,536 sq. ft. 871 sq. ft. $455
2018-07-12 Condo 2664 Senter Road San Jose, CA 95111 $515,000 1,020 sq. ft. 871 sq. ft. $505
2018-07-12 Condo Contemporary 1418 Allegado Alley San Jose, CA 95128 $868,000 1,393 sq. ft. 871 sq. ft. $623
2018-07-12 Condo 683 Tigerseye Loop San Jose, CA 95123 $999,998 2,093 sq. ft. 1,307 sq. ft. $478
2018-07-12 Condo Contemporary 420 Camille Circle San Jose, CA 95134 $1,198,000 1,710 sq. ft. 1,307 sq. ft. $701
2018-07-12 Condo 3439 Wine Cork Way San Jose, CA 95124 $689,000 960 sq. ft. 436 sq. ft. $718
2018-07-12 Condo 708 Messina Gardens Lane San Jose, CA 95133 $938,000 1,774 sq. ft. 17,860 sq. ft. $529
2018-07-12 Condo Contemporary 972 Goodacre Lane San Jose, CA 95125 $999,000 1,712 sq. ft. 6,098 sq. ft. $584
2018-07-12 Condo 2321 Saidel Drive San Jose, CA 95124 $600,000 798 sq. ft. 3,049 sq. ft. $752
2018-07-12 Condo 564 4th Street San Jose, CA 95112 $549,000 916 sq. ft. 436 sq. ft. $599
2018-07-12 Condo 1240 Whitfield Court San Jose, CA 95131 $914,888 1,452 sq. ft. 1,742 sq. ft. $630
2018-07-12 Condo 719 Star Jasmine Court San Jose, CA 95131 $998,000 1,509 sq. ft. 871 sq. ft. $661
2018-07-12 Condo 183 Sunwood Meadows Place San Jose, CA 95119 $585,000 920 sq. ft. 871 sq. ft. $636
2018-07-12 Condo 500 Golfview Drive San Jose, CA 95127 $789,000 1,888 sq. ft. 2,178 sq. ft. $418
2018-07-12 Condo 1318 Capitol Avenue San Jose, CA 95132 $989,000 1,605 sq. ft. 436 sq. ft. $616
2018-07-12 Condo 2644 Yerba Vista Court San Jose, CA 95121 $679,000 936 sq. ft. 871 sq. ft. $725
2018-07-12 Condo 1885 Sable Place San Jose, CA 95133 $800,000 1,400 sq. ft. 436 sq. ft. $571
2018-07-12 Condo 5358 Colony Field Drive San Jose, CA 95123 $699,999 1,294 sq. ft. 871 sq. ft. $541
2018-07-12 Condo 806 Font Terrace San Jose, CA 95126 $949,000 1,343 sq. ft. 871 sq. ft. $707
2018-07-12 Condo 288 Tradewinds Drive San Jose, CA 95123 $429,000 722 sq. ft. 871 sq. ft. $594
2018-07-12 Condo Contemporary 20 2nd Street San Jose, CA 95113 $899,000 1,516 sq. ft. 1,307 sq. ft. $593
2018-07-12 Condo Contemporary 680 Willow Street San Jose, CA 95125 $949,950 1,529 sq. ft. 1,307 sq. ft. $621
2018-07-11 Condo 601 Hermes Court San Jose, CA 95111 $688,888 1,496 sq. ft. 3,485 sq. ft. $460
2018-07-11 Condo 422 Gremlin Court San Jose, CA 95111 $529,000 921 sq. ft. 2,178 sq. ft. $574
2018-07-11 Condo Mediterranean; Spanish 5403 Colony Green Drive San Jose, CA 95123 $728,000 1,260 sq. ft. 1,307 sq. ft. $578
2018-07-11 Condo 1573 De Rome Drive San Jose, CA 95131 $952,560 1,171 sq. ft. $813
2018-07-11 Condo 1600 La Terrace Circle San Jose, CA 95123 $699,000 1,138 sq. ft. 1,307 sq. ft. $614
2018-07-11 Condo 1410 Alma Way San Jose, CA 95125 $735,000 1,071 sq. ft. 871 sq. ft. $686
2018-07-11 Condo 125 Patterson Street San Jose, CA 95112 $565,000 710 sq. ft. 871 sq. ft. $796
2018-07-11 Condo Contemporary 1116 Genco Terrace San Jose, CA 95133 $848,000 1,129 sq. ft. 436 sq. ft. $751
2018-07-11 Condo Contemporary 1081 Harebell Place San Jose, CA 95131 $1,080,000 1,622 sq. ft. 436 sq. ft. $666
2018-07-11 Condo 2439 Jubilee Lane San Jose, CA 95131 $445,000 645 sq. ft. 6,098 sq. ft. $690
2018-07-11 Condo 1550 Technology Drive San Jose, CA 95110 $588,000 831 sq. ft. 871 sq. ft. $708
2018-07-11 Condo 4768 Archbow Court San Jose, CA 95136 $659,000 992 sq. ft. 1,307 sq. ft. $664
2018-07-11 Condo 291 Kenbrook Circle San Jose, CA 95111 $570,000 1,094 sq. ft. 5,227 sq. ft. $521
2018-07-11 Condo 1010 Goldenstar Place San Jose, CA 95131 $1,188,890 1,718 sq. ft. 436 sq. ft. $692
2018-07-11 Condo Contemporary 1055 Capitol Avenue San Jose, CA 95133 $638,800 832 sq. ft. 871 sq. ft. $768
2018-07-11 Condo 5491 Tyhurst Ww San Jose, CA 95123 $469,000 810 sq. ft. 3,049 sq. ft. $579
2018-07-11 Condo 1128 Quail Run Court San Jose, CA 95118 $849,900 1,420 sq. ft. 1,307 sq. ft. $599
2018-07-11 Condo Mediterranean 1445 Fruitdale San Jose, CA 95128 $765,000 1,193 sq. ft. 1,307 sq. ft. $641
2018-07-10 Condo 1382 Branham Lane San Jose, CA 95118 $499,000 903 sq. ft. 3,485 sq. ft. $553
2018-07-10 Condo 1141 Waterton Lane San Jose, CA 95131 $724,995 987 sq. ft. 1,307 sq. ft. $735
2018-07-10 Condo 1060 3rd Street San Jose, CA 95112 $640,000 1,000 sq. ft. 1,307 sq. ft. $640
2018-07-10 Condo 95 Hobson Street San Jose, CA 95110 $489,000 726 sq. ft. 15,246 sq. ft. $674
2018-07-10 Condo Mediterranean 1053 Dewberry Place San Jose, CA 95131 $1,380,000 2,147 sq. ft. 1,742 sq. ft. $643
2018-07-10 Condo 882 Lake Mcclure Drive San Jose, CA 95123 $688,200 1,002 sq. ft. 1,307 sq. ft. $687
2018-07-10 Condo 5607 Bluegrass Lane San Jose, CA 95118 $850,000 1,209 sq. ft. 2,178 sq. ft. $703
2018-07-10 Condo 1137 Brace Avenue San Jose, CA 95125 $979,950 1,092 sq. ft. 2,178 sq. ft. $897
2018-07-10 Condo 1137 Brace Avenue San Jose, CA 95125 $1,149,950 1,356 sq. ft. 2,178 sq. ft. $848
2018-07-10 Condo 1939 Huxley Court San Jose, CA 95125 $849,000 1,071 sq. ft. 1,307 sq. ft. $793
2018-07-10 Condo 723 Whitewater Court San Jose, CA 95133 $698,000 1,113 sq. ft. 871 sq. ft. $627
2018-07-10 Condo Contemporary 435 2nd Street San Jose, CA 95112 $848,000 1,548 sq. ft. 871 sq. ft. $548
2018-07-10 Condo 1044 Yarwood Court San Jose, CA 95128 $685,000 922 sq. ft. 871 sq. ft. $743
2018-07-10 Condo 4846 Lakebird Place San Jose, CA 95124 $899,000 1,212 sq. ft. 10,019 sq. ft. $742
2018-07-10 Condo Contemporary 1543 Hummingbird Place San Jose, CA 95129 $1,799,000 1,743 sq. ft. 0 sq. ft. $1,032
2018-07-10 Condo 1434 Rocklin Court San Jose, CA 95131 $698,898 896 sq. ft. 871 sq. ft. $780
2018-07-09 Condo 1375 Lick Avenue San Jose, CA 95110 $645,000 733 sq. ft. $880
2018-07-09 Condo 580 Palmetto Drive San Jose, CA 95111 $568,888 1,157 sq. ft. 1,307 sq. ft. $492
2018-07-09 Condo Contemporary 1375 Lick Ave San Jose, CA 95110 $645,000 733 sq. ft. 1,307 sq. ft. $880
2018-07-09 Condo Mediterranean 3589 Flint Creek Drive San Jose, CA 95148 $699,888 1,473 sq. ft. 1,742 sq. ft. $475
2018-07-09 Condo 7156 Calero Hills Court San Jose, CA 95139 $799,000 1,674 sq. ft. 2,178 sq. ft. $477
2018-07-09 Condo 5468 Tyhurst Ww San Jose, CA 95123 $499,788 810 sq. ft. 3,049 sq. ft. $617
2018-07-09 Condo Contemporary 6586 Boston Post Court San Jose, CA 95120 $1,195,000 1,451 sq. ft. 1,742 sq. ft. $824
2018-07-09 Condo 1357 Phelps Avenue San Jose, CA 95117 $738,000 1,107 sq. ft. 1,307 sq. ft. $667
2018-07-09 Condo Spanish 1108 Winchester Boulevard San Jose, CA 95128 $549,000 669 sq. ft. 871 sq. ft. $821
2018-07-09 Condo 2258 Almaden Road San Jose, CA 95125 $775,000 1,163 sq. ft. 1,307 sq. ft. $666
2018-07-07 Condo 3584 Gum Tree Drive San Jose, CA 95111 $499,999 1,017 sq. ft. 1,307 sq. ft. $492
2018-07-07 Condo 5555 Judith St San Jose, CA 95123 $489,000 903 sq. ft. 1,742 sq. ft. $542
2018-07-07 Condo 88 San Fernando Street San Jose, CA 95113 $875,000 1,069 sq. ft. $819
2018-07-06 Condo 187 William Manly Street San Jose, CA 95136 $899,000 1,668 sq. ft. 1,742 sq. ft. $539
2018-07-06 Condo Mediterranean 1550 Technology Drive San Jose, CA 95110 $788,000 1,133 sq. ft. 871 sq. ft. $696
2018-07-06 Condo 6215 Sunstone Drive San Jose, CA 95123 $949,000 1,901 sq. ft. 1,307 sq. ft. $499
2018-07-06 Condo 3099 Lina Lane San Jose, CA 95136 $998,000 1,813 sq. ft. 871 sq. ft. $550
2018-07-06 Condo Contemporary 3099 Lina Ln San Jose, CA 95136 $998,000 1,813 sq. ft. 871 sq. ft. $550
2018-07-06 Condo 38 Almaden Boulevard San Jose, CA 95110 $998,000 1,220 sq. ft. 21,344 sq. ft. $818
2018-07-06 Condo 7232 Via Mimosa San Jose, CA 95135 $800,000 1,815 sq. ft. 4,356 sq. ft. $441
2018-07-06 Condo 2119 Oakland Road San Jose, CA 95131 $998,000 1,376 sq. ft. 871 sq. ft. $725
2018-07-05 Condo 5513 Judith Street San Jose, CA 95123 $495,000 810 sq. ft. 3,049 sq. ft. $611
2018-07-05 Condo 7057 Santa Teresa Boulevard San Jose, CA 95139 $725,000 1,640 sq. ft. 3,049 sq. ft. $442
2018-07-05 Condo 555 Groth Place San Jose, CA 95111 $569,950 1,322 sq. ft. 871 sq. ft. $431
2018-07-05 Condo 525 9th Street San Jose, CA 95112 $980,000 1,380 sq. ft. 3,485 sq. ft. $710
2018-07-05 Condo 547 Groth Pl San Jose, CA 95111 $525,000 941 sq. ft. $558
2018-07-05 Condo Mediterranean 1771 Flint Creek Way San Jose, CA 95148 $759,000 1,622 sq. ft. 2,178 sq. ft. $468
2018-07-05 Condo 4299 Voltaire Street San Jose, CA 95135 $1,128,000 1,601 sq. ft. 3,049 sq. ft. $705
2018-07-05 Condo Contemporary 505 Mill River Lane San Jose, CA 95134 $1,285,000 1,887 sq. ft. 1,307 sq. ft. $681
2018-07-05 Condo 9049 Village View Loop San Jose, CA 95135 $1,150,000 2,025 sq. ft. 2,614 sq. ft. $568
2018-07-05 Condo 2472 Autumnvale Avenue San Jose, CA 95131 $969,980 1,536 sq. ft. 436 sq. ft. $632
2018-07-05 Condo Contemporary 4288 Lautrec Drive San Jose, CA 95135 $1,099,000 1,601 sq. ft. 3,049 sq. ft. $686
2018-07-05 Condo 474 Siebert Court San Jose, CA 95111 $510,000 762 sq. ft. $669
2018-07-04 Condo 268 El Rancho Verde Drive San Jose, CA 95116 $599,888 1,180 sq. ft. 871 sq. ft. $508
2018-07-04 Condo Contemporary 3062 Shadow Springs Place San Jose, CA 95121 $459,900 866 sq. ft. 871 sq. ft. $531
2018-07-04 Condo 601 Balfour Drive San Jose, CA 95111 $555,000 1,075 sq. ft. 436 sq. ft. $516
2018-07-03 Condo Contemporary 633 Blackbury Lane San Jose, CA 95133 $1,095,860 1,640 sq. ft. $668
2018-07-03 Condo Contemporary 1375 Phelps Avenue San Jose, CA 95117 $610,000 840 sq. ft. 1,307 sq. ft. $726
2018-07-03 Condo 411 Park Avenue San Jose, CA 95110 $649,000 876 sq. ft. 871 sq. ft. $741
2018-07-03 Condo 1587 De Rome San Jose, CA 95131 $1,287,000 1,847 sq. ft. 1,742 sq. ft. $697
2018-07-03 Condo Contemporary 1822 Camino Leonor San Jose, CA 95131 $880,000 1,422 sq. ft. 1,307 sq. ft. $619
2018-07-03 Condo 487 Sieber Court San Jose, CA 95111 $484,900 762 sq. ft. 871 sq. ft. $636
2018-07-02 Condo 8016 Pinot Noir Court San Jose, CA 95135 $408,000 731 sq. ft. 871 sq. ft. $558
2018-07-02 Condo 4730 Strawberry Lane San Jose, CA 95129 $1,198,000 1,408 sq. ft. 1,307 sq. ft. $851
2018-06-30 Condo 8612 Vineyard Ridge Place San Jose, CA 95135 $749,000 1,415 sq. ft. 2,178 sq. ft. $529
2018-06-30 Condo Contemporary 1336 Capitol Avenue San Jose, CA 95132 $873,888 1,526 sq. ft. 436 sq. ft. $573
2018-06-30 Condo 780 Delaware Avenue San Jose, CA 95123 $468,000 798 sq. ft. 3,049 sq. ft. $586
2018-06-30 Condo 2669 Rosalinda Court San Jose, CA 95121 $529,000 988 sq. ft. 871 sq. ft. $535
2018-06-29 Condo 825 Basking Lane San Jose, CA 95138 $815,000 1,257 sq. ft. 871 sq. ft. $648
2018-06-29 Condo Contemporary 88 San Fernando Street San Jose, CA 95113 $649,000 673 sq. ft. 4,356 sq. ft. $964
2018-06-29 Condo 5492 Judith Street San Jose, CA 95123 $499,000 903 sq. ft. 3,049 sq. ft. $553
2018-06-29 Condo 1550 Technology Drive San Jose, CA 95110 $599,000 831 sq. ft. 871 sq. ft. $721
2018-06-28 Condo 5724 Calmor Avenue San Jose, CA 95123 $499,000 903 sq. ft. 3,049 sq. ft. $553
2018-06-28 Condo 5970 Lake Almanor Drive San Jose, CA 95123 $689,000 982 sq. ft. 871 sq. ft. $702
2018-06-28 Condo 1594 Brookvale Drive San Jose, CA 95129 $998,000 985 sq. ft. 12,632 sq. ft. $1,013
2018-06-28 Condo 2753 Ferrara Circle San Jose, CA 95111 $900,000 1,856 sq. ft. 871 sq. ft. $485
2018-06-28 Condo Contemporary 374 Tower Hill Avenue San Jose, CA 95136 $929,000 1,643 sq. ft. 871 sq. ft. $565
2018-06-28 Condo Mediterranean 3275 Shiraz Place San Jose, CA 95135 $1,099,000 1,626 sq. ft. 871 sq. ft. $676
2018-06-28 Condo 1024 Summermist Court San Jose, CA 95122 $475,000 1,056 sq. ft. 436 sq. ft. $450
2018-06-27 Condo 415 2nd Street San Jose, CA 95112 $849,000 1,887 sq. ft. 871 sq. ft. $450
2018-06-27 Condo 859 White Moonstone Loop San Jose, CA 95123 $899,000 1,901 sq. ft. 1,307 sq. ft. $473
2018-06-27 Condo Contemporary 2858 Paseo Lane San Jose, CA 95124 $1,299,000 2,438 sq. ft. 1,307 sq. ft. $533
2018-06-27 Condo 334 Santana Row San Jose, CA 95128 $1,125,000 1,099 sq. ft. 871 sq. ft. $1,024
2018-06-27 Condo 1087 Di Napoli Drive San Jose, CA 95129 $1,900,000 2,496 sq. ft. 2,614 sq. ft. $761
2018-06-27 Condo 3565 Jasmine Circle San Jose, CA 95135 $1,049,000 1,545 sq. ft. 5,227 sq. ft. $679
2018-06-27 Condo Contemporary 825 Berryessa Road San Jose, CA 95112 $998,000 1,391 sq. ft. 436 sq. ft. $717
2018-06-27 Condo Traditional 3323 Cannongate Court San Jose, CA 95121 $644,888 1,320 sq. ft. 1,742 sq. ft. $489
2018-06-27 Condo 6971 Rodling Drive San Jose, CA 95138 $598,000 1,129 sq. ft. 436 sq. ft. $530
2018-06-26 Condo Contemporary 1121 Holly Oak Circle San Jose, CA 95120 $1,088,000 1,824 sq. ft. 3,049 sq. ft. $596
2018-06-26 Condo 3462 Bathgate Lane San Jose, CA 95121 $649,888 1,131 sq. ft. 1,742 sq. ft. $575
2018-06-26 Condo 1360 Branham Lane San Jose, CA 95118 $479,900 903 sq. ft. $531
2018-06-26 Condo Traditional 1865 Huxley Court San Jose, CA 95125 $848,000 1,071 sq. ft. 1,307 sq. ft. $792
2018-06-26 Condo 5689 Makati Circle San Jose, CA 95123 $458,888 690 sq. ft. 871 sq. ft. $665
2018-06-26 Condo 21 Esfahan Drive San Jose, CA 95111 $840,000 1,680 sq. ft. 1,307 sq. ft. $500
2018-06-26 Condo 1703 Alder Creek Court San Jose, CA 95148 $749,000 1,622 sq. ft. 2,178 sq. ft. $462
2018-06-26 Condo Contemporary 6985 Rodling Drive San Jose, CA 95138 $649,888 1,093 sq. ft. 436 sq. ft. $595
2018-06-26 Condo 1550 Technology Drive San Jose, CA 95110 $580,000 665 sq. ft. 871 sq. ft. $872
2018-06-25 Condo Mediterranean 7006 Silver Star Court San Jose, CA 95120 $1,199,890 1,984 sq. ft. 1,307 sq. ft. $605
2018-06-25 Condo Contemporary 2881 Meridian Avenue San Jose, CA 95124 $999,000 1,678 sq. ft. 1,307 sq. ft. $595
2018-06-25 Condo Contemporary 5382 Borneo Circle San Jose, CA 95123 $649,000 1,246 sq. ft. 7,405 sq. ft. $521
2018-06-25 Condo 3121 Loma Verde Drive San Jose, CA 95117 $875,000 1,306 sq. ft. 1,307 sq. ft. $670
2018-06-25 Condo 6140 Golden Vista Drive San Jose, CA 95123 $899,888 1,793 sq. ft. 1,307 sq. ft. $502
2018-06-25 Condo 1944 Tradan Drive San Jose, CA 95132 $438,888 712 sq. ft. 5,663 sq. ft. $616
2018-06-24 Condo Traditional 1627 Foxworthy Avenue San Jose, CA 95118 $1,275,000 2,033 sq. ft. 2,178 sq. ft. $627
2018-06-23 Condo Contemporary 5951 Sunstone Drive San Jose, CA 95123 $610,880 808 sq. ft. $756
2018-06-23 Condo Contemporary 5951 Sunstone San Jose, CA 95123 $610,880 808 sq. ft. $756
2018-06-22 Condo 1697 Braddock Court San Jose, CA 95125 $775,000 1,021 sq. ft. 871 sq. ft. $759
2018-06-22 Condo Contemporary 303 Tradewinds Drive San Jose, CA 95123 $525,800 959 sq. ft. $548
2018-06-22 Condo Contemporary 2124 Amstel Court San Jose, CA 95116 $649,888 1,474 sq. ft. 871 sq. ft. $441
2018-06-22 Condo 2741 Buena View Court San Jose, CA 95121 $795,000 1,216 sq. ft. 871 sq. ft. $654
2018-06-22 Condo 786 Warring Drive San Jose, CA 95123 $505,000 903 sq. ft. $559
2018-06-22 Condo 5553 Makati Circle San Jose, CA 95123 $799,000 1,874 sq. ft. 1,742 sq. ft. $426
2018-06-22 Condo 3265 Sangiovese Place San Jose, CA 95135 $987,000 1,398 sq. ft. 871 sq. ft. $706
2018-06-22 Condo 1508 Briartree Drive San Jose, CA 95131 $768,000 922 sq. ft. 1,307 sq. ft. $833
2018-06-22 Condo Mediterranean 2150 Silver Vale Court San Jose, CA 95138 $1,028,000 1,793 sq. ft. 2,614 sq. ft. $573
2018-06-22 Condo 2917 Rose Avenue San Jose, CA 95127 $498,000 1,092 sq. ft. 5,227 sq. ft. $456
2018-06-22 Condo 4755 La Pinta Way San Jose, CA 95129 $1,288,000 1,350 sq. ft. 3,920 sq. ft. $954
2018-06-21 Condo Contemporary 769 Modern Ice Drive San Jose, CA 95112 $799,000 1,288 sq. ft. 436 sq. ft. $620
2018-06-21 Condo 7307 Via Granja San Jose, CA 95135 $825,000 1,781 sq. ft. 6,970 sq. ft. $463
2018-06-21 Condo Tudor 7636 Buckhaven Drive San Jose, CA 95135 $849,950 1,751 sq. ft. 2,614 sq. ft. $485
2018-06-21 Condo Traditional 546 Holly Hock Court San Jose, CA 95117 $949,888 1,117 sq. ft. 436 sq. ft. $850
2018-06-21 Condo 5086 Ruffino Terrace San Jose, CA 95129 $1,288,000 1,409 sq. ft. 871 sq. ft. $914
2018-06-21 Condo 1898 Meridian Avenue San Jose, CA 95125 $799,950 1,312 sq. ft. 7,405 sq. ft. $610
2018-06-21 Condo Contemporary 1025 White Peach Way San Jose, CA 95133 $998,000 1,587 sq. ft. 871 sq. ft. $629
2018-06-21 Condo 1863 Dobbin Drive San Jose, CA 95133 $985,000 1,667 sq. ft. 436 sq. ft. $591
2018-06-21 Condo 1085 Longshore Drive San Jose, CA 95128 $879,900 1,606 sq. ft. 3,485 sq. ft. $548
2018-06-21 Condo Contemporary 246 Kentdale Place San Jose, CA 95126 $1,098,890 1,581 sq. ft. 436 sq. ft. $695
2018-06-21 Condo 2326 Saidel Drive San Jose, CA 95124 $615,000 798 sq. ft. 3,485 sq. ft. $771
2018-06-21 Condo 1148 Coach Court San Jose, CA 95120 $899,888 1,124 sq. ft. 2,178 sq. ft. $801
2018-06-21 Condo 451 Don Del Monico Court San Jose, CA 95123 $649,000 1,156 sq. ft. 871 sq. ft. $561
2018-06-21 Condo 708 Grandview Terrace San Jose, CA 95133 $938,888 1,522 sq. ft. 871 sq. ft. $617
2018-06-21 Condo 2190 Beech Circle San Jose, CA 95131 $999,000 1,812 sq. ft. 871 sq. ft. $551
2018-06-20 Condo Contemporary 5439 Sanchez Drive San Jose, CA 95123 $630,000 1,072 sq. ft. 3,049 sq. ft. $588
2018-06-20 Condo 2165 Pomme Court San Jose, CA 95125 $799,900 1,144 sq. ft. 2,178 sq. ft. $699
2018-06-20 Condo 2881 Meridian Avenue San Jose, CA 95124 $866,000 1,383 sq. ft. 1,307 sq. ft. $626
2018-06-20 Condo 349 Bundy Avenue San Jose, CA 95117 $988,888 1,335 sq. ft. 871 sq. ft. $741
2018-06-20 Condo 5452 Colony Field Drive San Jose, CA 95123 $499,000 942 sq. ft. 871 sq. ft. $530
2018-06-20 Condo 538 Altino Boulevard San Jose, CA 95136 $699,000 1,104 sq. ft. 1,742 sq. ft. $633
2018-06-20 Condo 542 Altino Boulevard San Jose, CA 95136 $749,888 1,250 sq. ft. 2,178 sq. ft. $600
2018-06-20 Condo Cottage 2708 Buena View Ct San Jose, CA 95121 $799,000 1,216 sq. ft. 436 sq. ft. $657
2018-06-20 Condo 2708 Buena View Court San Jose, CA 95121 $799,000 1,216 sq. ft. 871 sq. ft. $657
2018-06-20 Condo Contemporary 3458 Bathgate Lane San Jose, CA 95121 $649,000 1,131 sq. ft. 1,742 sq. ft. $574
2018-06-20 Condo 1063 Rymar Place San Jose, CA 95133 $788,000 1,042 sq. ft. 1,742 sq. ft. $756
2018-06-20 Condo Mediterranean 724 Adeline Avenue San Jose, CA 95136 $949,000 1,750 sq. ft. 871 sq. ft. $542
2018-06-20 Condo 410 Auburn Way San Jose, CA 95129 $649,000 1,099 sq. ft. 15,682 sq. ft. $591
2018-06-20 Condo 5718 Allen Avenue San Jose, CA 95123 $499,000 903 sq. ft. 3,049 sq. ft. $553
2018-06-19 Condo 1029 Cumberland Place San Jose, CA 95125 $899,000 1,319 sq. ft. 3,049 sq. ft. $682
2018-06-19 Condo Traditional 8747 Mccarty Ranch Drive San Jose, CA 95135 $1,149,000 2,305 sq. ft. 2,178 sq. ft. $498
2018-06-19 Condo 576 Giuffrida Avenue San Jose, CA 95123 $748,000 1,320 sq. ft. 436 sq. ft. $567
2018-06-19 Condo 5617 Playa Del Rey San Jose, CA 95123 $499,950 903 sq. ft. 3,049 sq. ft. $554
2018-06-19 Condo 5715 Makati Circle San Jose, CA 95123 $598,000 919 sq. ft. 1,307 sq. ft. $651
2018-06-19 Condo 390 Jackson Street San Jose, CA 95112 $898,000 1,380 sq. ft. 871 sq. ft. $651
2018-06-19 Condo 5019 Grey Feather Circle San Jose, CA 95136 $699,900 1,268 sq. ft. 2,178 sq. ft. $552
2018-06-19 Condo 1219 Polk Spring Court San Jose, CA 95120 $1,079,000 1,155 sq. ft. 3,920 sq. ft. $934
2018-06-19 Condo Contemporary 2814 Paseo Lane San Jose, CA 95124 $1,199,000 2,438 sq. ft. 1,307 sq. ft. $492
2018-06-19 Condo Cape Cod 503 Mill River Lane San Jose, CA 95134 $1,198,000 1,546 sq. ft. 1,307 sq. ft. $775
2018-06-18 Condo 259 Capitol Avenue San Jose, CA 95127 $525,000 955 sq. ft. 871 sq. ft. $550
2018-06-18 Condo 1146 Arbor Vista Way San Jose, CA 95126 $848,000 1,150 sq. ft. 2,178 sq. ft. $737
2018-06-18 Condo 17 Kenbrook Circle San Jose, CA 95111 $500,000 880 sq. ft. 4,792 sq. ft. $568
2018-06-18 Condo 3230 Kenhill Drive San Jose, CA 95111 $625,000 1,164 sq. ft. 4,356 sq. ft. $537
2018-06-18 Condo 3384 Landess Avenue San Jose, CA 95132 $649,800 976 sq. ft. 871 sq. ft. $666
2018-06-17 Condo 2113 Winepol Loop San Jose, CA 95125 $879,000 1,480 sq. ft. 1,307 sq. ft. $594
2018-06-17 Condo 3230 Kenhill Drive San Jose, CA 95111 $625,000 1,164 sq. ft. 4,356 sq. ft. $537
2018-06-15 Condo 1887 Dobbin Drive San Jose, CA 95133 $998,000 1,940 sq. ft. 436 sq. ft. $514
2018-06-15 Condo 782 Luna Park Drive San Jose, CA 95112 $1,000,000 1,391 sq. ft. 436 sq. ft. $719
2018-06-15 Condo Contemporary 1574 Brookvale Dr San Jose, CA 95129 $1,300,000 1,312 sq. ft. 871 sq. ft. $991
2018-06-15 Condo 5340 Borneo Circle San Jose, CA 95123 $649,000 1,122 sq. ft. 7,405 sq. ft. $578
2018-06-15 Condo 831 Gaspar Vista San Jose, CA 95126 $1,249,000 1,930 sq. ft. 871 sq. ft. $647
2018-06-15 Condo Contemporary 144 3rd Street San Jose, CA 95112 $849,000 1,542 sq. ft. 436 sq. ft. $551
2018-06-15 Condo 118 Damsen Drive San Jose, CA 95116 $549,000 1,069 sq. ft. 1,307 sq. ft. $514
2018-06-15 Condo 2000 Olivegate Lane San Jose, CA 95136 $680,000 1,308 sq. ft. 1,307 sq. ft. $520
2018-06-15 Condo 3180 Cropley Avenue San Jose, CA 95132 $768,888 1,003 sq. ft. 871 sq. ft. $767
2018-06-15 Condo 375 Hans Way San Jose, CA 95133 $788,000 1,431 sq. ft. 2,178 sq. ft. $551
2018-06-15 Condo Contemporary 1653 Hillsdale Avenue San Jose, CA 95124 $1,098,000 2,053 sq. ft. 1,307 sq. ft. $535
2018-06-15 Condo 301 Tradewinds Dr San Jose, CA 95123 $599,999 1,252 sq. ft. 2,614 sq. ft. $479
2018-06-14 Condo 175 Saint James Street San Jose, CA 95110 $845,000 1,190 sq. ft. 1,307 sq. ft. $710
2018-06-14 Condo 2168 Mendocino Lane San Jose, CA 95124 $1,088,000 1,524 sq. ft. 871 sq. ft. $714
2018-06-14 Condo Contemporary 1574 Brookvale Drive San Jose, CA 95129 $1,300,000 1,312 sq. ft. 12,632 sq. ft. $991
2018-06-14 Condo 256 Tradewinds Court San Jose, CA 95123 $473,000 903 sq. ft. 3,049 sq. ft. $524
2018-06-14 Condo 88 San Fernando Street San Jose, CA 95113 $798,888 1,069 sq. ft. 3,485 sq. ft. $747
2018-06-14 Condo 3931 Mosher Drive San Jose, CA 95135 $1,129,980 1,381 sq. ft. 2,178 sq. ft. $818
2018-06-14 Condo 340 Auburn Way San Jose, CA 95129 $649,000 924 sq. ft. 9,148 sq. ft. $702
2018-06-14 Condo 5308 Borneo Circle San Jose, CA 95123 $649,000 1,122 sq. ft. 7,405 sq. ft. $578
2018-06-14 Condo 383 Destino Circle San Jose, CA 95133 $899,000 1,448 sq. ft. 871 sq. ft. $621
2018-06-13 Condo 3166 Landess Avenue San Jose, CA 95132 $649,000 976 sq. ft. 871 sq. ft. $665
2018-06-13 Condo 2733 Somerset Park Circle San Jose, CA 95132 $499,000 677 sq. ft. 871 sq. ft. $737
2018-06-13 Condo 2635 Senter Creek Court San Jose, CA 95111 $579,000 1,146 sq. ft. 871 sq. ft. $505
2018-06-13 Condo 3550 Alden Way San Jose, CA 95117 $715,000 990 sq. ft. 436 sq. ft. $722
2018-06-13 Condo 1683 Sandyrock Court San Jose, CA 95125 $998,000 1,954 sq. ft. 2,178 sq. ft. $511
2018-06-13 Condo 1060 3rd Street San Jose, CA 95112 $650,000 1,100 sq. ft. 1,307 sq. ft. $591
2018-06-12 Condo 335 Giovanni Court San Jose, CA 95133 $739,000 1,505 sq. ft. 1,307 sq. ft. $491
2018-06-12 Condo Spanish 1032 Polk Lane San Jose, CA 95117 $1,088,000 1,388 sq. ft. 2,178 sq. ft. $784
2018-06-12 Condo 335 Giovanni Ct San Jose, CA 95133 $739,000 1,505 sq. ft. 1,307 sq. ft. $491
2018-06-12 Condo Contemporary 3270 Lago De Como Place San Jose, CA 95136 $699,000 1,408 sq. ft. 871 sq. ft. $496
2018-06-12 Condo Contemporary 5965 Post Oak Circle San Jose, CA 95120 $1,098,000 2,571 sq. ft. 3,485 sq. ft. $427
2018-06-12 Condo 5694 Makati Circle San Jose, CA 95123 $675,000 989 sq. ft. 871 sq. ft. $683
2018-06-12 Condo 24 Torregata Loop San Jose, CA 95134 $689,000 850 sq. ft. 871 sq. ft. $811
2018-06-11 Condo 2216 Almaden Road San Jose, CA 95125 $799,900 1,163 sq. ft. 1,307 sq. ft. $688
2018-06-11 Condo 1298 Bouret Drive San Jose, CA 95118 $499,000 798 sq. ft. 3,049 sq. ft. $625
2018-06-11 Condo 1094 Summerplace Drive San Jose, CA 95122 $389,900 730 sq. ft. 871 sq. ft. $534
2018-06-11 Condo 8636 Solera San Jose, CA 95135 $945,000 1,690 sq. ft. $559
2018-06-11 Condo 7054 Via Belmonte San Jose, CA 95135 $630,000 1,386 sq. ft. $455
2018-06-11 Condo 1152 Brace Avenue San Jose, CA 95125 $799,000 954 sq. ft. 436 sq. ft. $838
2018-06-11 Condo 971 Pavilion Loop San Jose, CA 95112 $925,000 1,330 sq. ft. 871 sq. ft. $695
2018-06-11 Condo Ranch 718 Millich Drive San Jose, CA 95117 $950,000 1,018 sq. ft. 1,307 sq. ft. $933
2018-06-11 Condo 6078 Calle De Amor San Jose, CA 95124 $1,158,000 2,235 sq. ft. 3,049 sq. ft. $518
2018-06-11 Condo 1964 Prince George Drive San Jose, CA 95116 $355,000 456 sq. ft. 436 sq. ft. $779
2018-06-10 Condo 410 Kenbrook Circle San Jose, CA 95111 $485,000 880 sq. ft. 4,792 sq. ft. $551
2018-06-09 Condo 144 3rd Street San Jose, CA 95112 $929,000 1,421 sq. ft. 871 sq. ft. $654
2018-06-08 Condo 5483 Don Marcello Court San Jose, CA 95123 $553,888 950 sq. ft. $583
2018-06-08 Condo Contemporary 1611 Thorncrest Drive San Jose, CA 95131 $789,888 913 sq. ft. 871 sq. ft. $865
2018-06-08 Condo 3358 Methilhaven Lane San Jose, CA 95121 $525,000 826 sq. ft. 2,178 sq. ft. $636
2018-06-08 Condo 3250 Kenhill Drive San Jose, CA 95111 $395,000 1,008 sq. ft. 871 sq. ft. $392
2018-06-08 Condo 1672 Lorient Terrace San Jose, CA 95133 $899,999 1,369 sq. ft. 1,307 sq. ft. $657
2018-06-08 Condo 3271 Shiraz Place San Jose, CA 95135 $1,049,950 1,398 sq. ft. 871 sq. ft. $751
2018-06-08 Condo 2073 San Antonio Street San Jose, CA 95116 $705,000 1,278 sq. ft. 871 sq. ft. $552
2018-06-07 Condo 5491 Tyhurst Walkway San Jose, CA 95123 $459,900 903 sq. ft. $509
2018-06-07 Condo 2483 Alveswood Circle San Jose, CA 95131 $759,000 1,040 sq. ft. 4,792 sq. ft. $730
2018-06-07 Condo 1350 Darryl Drive San Jose, CA 95130 $838,000 905 sq. ft. 3,049 sq. ft. $926
2018-06-07 Condo 3109 Kenland Drive San Jose, CA 95111 $480,000 880 sq. ft. 4,792 sq. ft. $545
2018-06-07 Condo 2149 Samaritan Drive San Jose, CA 95124 $1,088,000 1,524 sq. ft. 871 sq. ft. $714
2018-06-06 Condo 1015 Abruzzo Lane San Jose, CA 95131 $1,292,290 1,847 sq. ft. $700
2018-06-06 Condo 1573 De Rome San Jose, CA 95131 $1,276,820 1,847 sq. ft. 1,742 sq. ft. $691
2018-06-06 Condo 837 Wyman Way San Jose, CA 95133 $459,900 798 sq. ft. 6,970 sq. ft. $576
2018-06-06 Condo 901 Bellhurst Avenue San Jose, CA 95122 $550,000 1,162 sq. ft. 871 sq. ft. $473
2018-06-06 Condo 3302 Landess Avenue San Jose, CA 95132 $629,999 976 sq. ft. 871 sq. ft. $645
2018-06-06 Condo 440 Galleria Drive San Jose, CA 95134 $1,089,000 1,564 sq. ft. 14,810 sq. ft. $696
2018-06-06 Condo 4453 Little Meadow Court San Jose, CA 95129 $1,398,000 1,429 sq. ft. 2,178 sq. ft. $978
2018-06-05 Condo 1088 Summerplace Drive San Jose, CA 95122 $398,000 730 sq. ft. 871 sq. ft. $545
2018-06-05 Condo 25 3rd Street San Jose, CA 95113 $600,000 704 sq. ft. 871 sq. ft. $852
2018-06-05 Condo 3319 Lake Albano Circle San Jose, CA 95135 $780,000 1,679 sq. ft. 2,178 sq. ft. $465
2018-06-05 Condo 86 Little Bear Way San Jose, CA 95136 $799,000 1,452 sq. ft. 6,534 sq. ft. $550
2018-06-05 Condo 1637 Thorncrest Drive San Jose, CA 95131 $799,000 922 sq. ft. 871 sq. ft. $867
2018-06-05 Condo Mediterranean 5337 Silver Point Way San Jose, CA 95138 $975,000 1,590 sq. ft. 2,614 sq. ft. $613
2018-06-05 Condo 1636 Solari Place San Jose, CA 95131 $1,270,000 1,978 sq. ft. 871 sq. ft. $642
2018-06-04 Condo 7810 Prestwick San Jose, CA 95135 $678,000 1,490 sq. ft. $455
2018-06-04 Condo Cape Cod 1456 Stokes Street San Jose, CA 95126 $915,000 1,441 sq. ft. 1,742 sq. ft. $635
2018-06-02 Condo Contemporary 5951 Sunstone Drive San Jose, CA 95123 $595,880 808 sq. ft. $737
2018-06-02 Condo Contemporary 5951 Sunstone Drive San Jose, CA 95123 $595,880 808 sq. ft. $737
2018-06-02 Condo 5477 Don Basillo Court San Jose, CA 95123 $638,000 1,156 sq. ft. 871 sq. ft. $552
2018-06-01 Condo 674 Lanfair Drive San Jose, CA 95136 $409,000 648 sq. ft. 3,485 sq. ft. $631
2018-06-01 Condo 7688 Galloway Drive San Jose, CA 95135 $810,000 1,572 sq. ft. 6,970 sq. ft. $515
2018-06-01 Condo 415 Camille Circle San Jose, CA 95134 $1,195,000 2,061 sq. ft. 1,307 sq. ft. $580
2018-06-01 Condo Mediterranean 2001 Sonador San Jose, CA 95128 $998,000 1,811 sq. ft. 871 sq. ft. $551
2018-06-01 Condo Contemporary 4415 Norwalk Drive San Jose, CA 95129 $879,000 1,374 sq. ft. 10,890 sq. ft. $640
2018-05-31 Condo Traditional 2383 Antelope Drive San Jose, CA 95133 $738,000 1,199 sq. ft. 1,307 sq. ft. $616
2018-05-31 Condo 247 Capitol Avenue San Jose, CA 95127 $430,000 828 sq. ft. 871 sq. ft. $519
2018-05-31 Condo 247 Capitol Avenue San Jose, CA 95127 $449,888 955 sq. ft. 871 sq. ft. $471
2018-05-30 Condo 512 Shadowgraph Drive San Jose, CA 95110 $718,000 871 sq. ft. 871 sq. ft. $824
2018-05-30 Condo 5539 Don Scala Court San Jose, CA 95123 $555,888 950 sq. ft. 871 sq. ft. $585
2018-05-29 Condo 1517 Briartree Drive San Jose, CA 95131 $699,000 913 sq. ft. $766
2018-05-29 Condo 4555 Powderborn Court San Jose, CA 95136 $888,000 1,760 sq. ft. 1,742 sq. ft. $505
2018-05-29 Condo Contemporary 5659 Playa Del Rey San Jose, CA 95123 $499,888 798 sq. ft. 3,049 sq. ft. $626
2018-05-25 Condo 5507 Cribari Bend San Jose, CA 95135 $449,950 1,240 sq. ft. 1,307 sq. ft. $363
2018-05-25 Condo Contemporary 1119 Odyssey Ct San Jose, CA 95118 $885,000 1,693 sq. ft. 1,307 sq. ft. $523
2018-05-24 Condo 2324 La Terrace Circle San Jose, CA 95123 $699,000 1,138 sq. ft. 17,860 sq. ft. $614
2018-05-23 Condo Contemporary 1387 Marcello Drive San Jose, CA 95131 $899,000 1,307 sq. ft. 1,742 sq. ft. $688
2018-05-23 Condo 602 Hermes Court San Jose, CA 95111 $685,000 1,496 sq. ft. 3,049 sq. ft. $458
2018-05-23 Condo Contemporary 602 Cedargate Lane San Jose, CA 95136 $679,000 1,296 sq. ft. 1,307 sq. ft. $524
2018-05-23 Condo 470 Navaro Way San Jose, CA 95134 $698,800 948 sq. ft. $737
2018-05-23 Condo 6182 Montgomery Place San Jose, CA 95135 $550,000 1,127 sq. ft. 2,178 sq. ft. $488
2018-05-23 Condo 4015 Gold Run Way San Jose, CA 95136 $679,000 1,272 sq. ft. 1,742 sq. ft. $534
2018-05-22 Condo 300 Tradewinds Drive San Jose, CA 95123 $599,888 1,252 sq. ft. 1,307 sq. ft. $479
2018-05-21 Condo 393 Velasco Drive San Jose, CA 95123 $549,000 950 sq. ft. 871 sq. ft. $578
2018-05-19 Condo Contemporary 2177 Alum Rock Avenue San Jose, CA 95116 $498,000 1,050 sq. ft. $474
2018-05-18 Condo 2407 La Terrace Circle San Jose, CA 95123 $679,950 995 sq. ft. 3,920 sq. ft. $683
2018-05-18 Condo 5017 Cribari Vale San Jose, CA 95135 $550,000 1,348 sq. ft. 8,712 sq. ft. $408
2018-05-18 Condo 1060 3rd San Jose, CA 95112 $499,000 550 sq. ft. 871 sq. ft. $907
2018-05-17 Condo 4691 Albany Circle San Jose, CA 95129 $888,000 1,350 sq. ft. $658
2018-05-17 Condo 5133 Cribari Place San Jose, CA 95135 $479,000 1,223 sq. ft. 6,970 sq. ft. $392
2018-05-16 Condo 5978 Bridgeport Lake Way San Jose, CA 95123 $685,000 1,002 sq. ft. 871 sq. ft. $684
2018-05-16 Condo 1573 De Rome San Jose, CA 95131 $1,284,490 1,847 sq. ft. $695
2018-05-15 Condo 300 Tradewinds Drive San Jose, CA 95123 $519,000 959 sq. ft. 2,614 sq. ft. $541
2018-05-11 Condo 272 Tradewinds Court San Jose, CA 95123 $499,500 810 sq. ft. 3,049 sq. ft. $617
2018-05-11 Condo 597 Palmetto Drive San Jose, CA 95111 $499,000 801 sq. ft. 1,742 sq. ft. $623
2018-05-11 Condo Contemporary 1119 Odyssey Court San Jose, CA 95118 $885,000 1,693 sq. ft. 1,307 sq. ft. $523
2018-05-11 Condo 1776 Camino Leonor San Jose, CA 95131 $799,000 1,422 sq. ft. $562
2018-05-11 Condo 404 Casselino Drive San Jose, CA 95136 $1,350,000 3,372 sq. ft. 3,920 sq. ft. $400
2018-05-11 Condo Mediterranean 2722 Forino Lane San Jose, CA 95111 $945,622 1,303 sq. ft. $726
2018-05-11 Condo 1011 Giacomo Lane San Jose, CA 95131 $987,281 1,171 sq. ft. $843
2018-05-11 Condo 5205 Cribari Hills San Jose, CA 95135 $450,000 1,240 sq. ft. $363
2018-05-11 Condo Contemporary; Traditional 189 Silcreek Drive San Jose, CA 95116 $570,000 1,313 sq. ft. 3,049 sq. ft. $434
2018-05-11 Condo 1394 Mcquesten Drive San Jose, CA 95122 $580,000 1,150 sq. ft. 871 sq. ft. $504
2018-05-10 Condo 3281 Merrit Lane San Jose, CA 95111 $589,000 1,197 sq. ft. 1,307 sq. ft. $492
2018-05-10 Condo 1073 Foxglove Place San Jose, CA 95131 $1,375,000 2,001 sq. ft. 871 sq. ft. $687
2018-05-10 Condo 7183 Indian Valley Court San Jose, CA 95139 $725,000 1,452 sq. ft. 1,307 sq. ft. $499
2018-05-10 Condo 7038 Via Valverde San Jose, CA 95135 $742,000 1,588 sq. ft. 3,485 sq. ft. $467
2018-05-10 Condo 5693 Makati Circle San Jose, CA 95123 $429,000 552 sq. ft. 436 sq. ft. $777
2018-05-10 Condo 5497 Spinnaker Walkway San Jose, CA 95123 $469,999 903 sq. ft. 3,049 sq. ft. $520
2018-05-10 Condo 2222 Alexian Drive San Jose, CA 95116 $498,888 976 sq. ft. 2,614 sq. ft. $511
2018-03-24 Condo 1011 Giacomo Lane San Jose, CA 95131 $977,555 1,371 sq. ft. 1,307 sq. ft. $713
2018-03-23 Condo 460 Auburn Way San Jose, CA 95129 $750,000 1,099 sq. ft. 9,126 sq. ft. $682
2018-03-18 Condo 1452 Bullion Circle San Jose, CA 95120 $1,250,000 2,964 sq. ft. 3,049 sq. ft. $422
2018-03-14 Condo 1011 Giacomo Lane San Jose, CA 95131 $972,489 1,171 sq. ft. $830
2018-03-14 Condo 1011 Giacomo Lane San Jose, CA 95131 $1,316,820 1,847 sq. ft. $713
2018-03-12 Condo 8106 Cabernet Court San Jose, CA 95135 $674,000 1,646 sq. ft. 2,614 sq. ft. $409
2018-03-03 Condo 1011 Giacomo Lane San Jose, CA 95131 $987,489 1,171 sq. ft. $843
2018-02-27 Condo 380 Auburn Way San Jose, CA 95129 $650,000 924 sq. ft. $703
2018-02-03 Condo Mediterranean 233 William Manly Street San Jose, CA 95136 $962,573 1,905 sq. ft. 436 sq. ft. $505
2018-01-19 Condo 217 William Manly Street San Jose, CA 95136 $870,996 1,668 sq. ft. 1,742 sq. ft. $522
2018-01-05 Condo Mediterranean 6115 Country Club Parkway San Jose, CA 95138 $1,298,000 1,803 sq. ft. 1,307 sq. ft. $720
2017-08-17 Condo 1417 Allegado Alley San Jose, CA 95128 $599,000 1,393 sq. ft. 1,742 sq. ft. $430
2017-06-21 Condo 101 Laurel Grove Ln San Jose, CA 95126 $819,000 1,640 sq. ft. 1,699 sq. ft. $499
2017-06-21 Condo 1103 Longshore Dr San Jose, CA 95128 $848,000 1,606 sq. ft. 3,485 sq. ft. $528
2017-06-21 Condo 7253 Via Vico San Jose, CA 95129 $888,000 1,192 sq. ft. 1,760 sq. ft. $745
2017-06-21 Condo 2505 Dillion Ct 3 San Jose, CA 95133 $375,000 903 sq. ft. 1,498 sq. ft. $415
2017-06-21 Condo 3192 Cropley Ave San Jose, CA 95132 $525,000 1,003 sq. ft. 706 sq. ft. $523
2017-06-21 Condo 834 Owens Lake Dr San Jose, CA 95123 $570,000 867 sq. ft. 1,211 sq. ft. $657
2017-06-21 Condo Modern / High Tech 125 Patterson St 136 San Jose, CA 95112 $575,000 1,218 sq. ft. 727 sq. ft. $472
2017-06-21 Condo 4631 Columbia River Ct San Jose, CA 95136 $649,900 1,760 sq. ft. 1,847 sq. ft. $369
2017-06-21 Condo 4644 Hampton Falls Pl San Jose, CA 95136 $749,950 1,745 sq. ft. 436 sq. ft. $430
2017-06-21 Condo 801 S Winchester Blvd 5202 San Jose, CA 95128 $688,000 986 sq. ft. 893 sq. ft. $698
2017-06-20 Condo Farm House 1076 Myrtle St San Jose, CA 95126 $978,000 1,666 sq. ft. 6,251 sq. ft. $587
2017-06-20 Condo Farm House 1074 Myrtle St San Jose, CA 95126 $988,000 1,722 sq. ft. 6,251 sq. ft. $574
2017-06-19 Condo 136 Spyglass Hill Rd San Jose, CA 95127 $649,888 1,703 sq. ft. 2,239 sq. ft. $382
2017-06-19 Condo 1737 Abington Ct San Jose, CA 95131 $600,000 987 sq. ft. 1,577 sq. ft. $608
2017-06-19 Condo 1898 Meridian Ave 36 San Jose, CA 95125 $669,888 1,312 sq. ft. 1,398 sq. ft. $511
2017-06-19 Condo 88 N Jackson Ave 303 San Jose, CA 95116 $448,888 1,056 sq. ft. 1,054 sq. ft. $425
2017-06-19 Condo 5234 Macaw Way San Jose, CA 95123 $529,000 1,052 sq. ft. 1,612 sq. ft. $503
2017-06-19 Condo 809 Basking Ln San Jose, CA 95138 $699,000 1,705 sq. ft. 1,703 sq. ft. $410
2017-06-19 Condo Contemporary 4786 Hatfield Walkway 3 San Jose, CA 95124 $519,000 903 sq. ft. 2,579 sq. ft. $575
2017-06-18 Condo Contemporary; Traditional 2925 Florence Ave 25 San Jose, CA 95127 $368,000 960 sq. ft. 958 sq. ft. $383
2017-06-18 Condo 2712 Buena View Ct San Jose, CA 95121 $585,000 843 sq. ft. 1,211 sq. ft. $694
2017-06-17 Condo 8786 Grape Wagon Cir San Jose, CA 95135 $825,000 1,675 sq. ft. 436 sq. ft. $493
2017-06-17 Condo 1550 Technology Dr 3089 San Jose, CA 95110 $500,000 831 sq. ft. 832 sq. ft. $602
2017-06-17 Condo 701 Applause Pl San Jose, CA 95134 $660,000 925 sq. ft. 1,577 sq. ft. $714
2017-06-16 Condo 1362 Branham Ln 3 San Jose, CA 95118 $449,950 903 sq. ft. 7,078 sq. ft. $498
2017-06-16 Condo 5193 Cribari Hls San Jose, CA 95135 $525,000 1,223 sq. ft. 1,664 sq. ft. $429
2017-06-16 Condo 8352 Charbono Ct San Jose, CA 95135 $649,000 1,370 sq. ft. 2,962 sq. ft. $474
2017-06-16 Condo Contemporary 144 S 3rd St 125 San Jose, CA 95112 $699,950 1,542 sq. ft. 841 sq. ft. $454
2017-06-16 Condo 2023 E San Antonio St San Jose, CA 95116 $590,000 1,278 sq. ft. 1,307 sq. ft. $462
2017-06-16 Condo Contemporary 3873 Jasmine Cir San Jose, CA 95135 $650,000 1,037 sq. ft. 1,198 sq. ft. $627
2017-06-16 Condo Contemporary 1030 N Jackson Ave San Jose, CA 95133 $749,888 1,697 sq. ft. 436 sq. ft. $442
2017-06-15 Condo 5390 Colony Park Cir San Jose, CA 95123 $499,000 942 sq. ft. 436 sq. ft. $530
2017-06-15 Condo 860 Catkin Ct San Jose, CA 95128 $525,000 922 sq. ft. 1,960 sq. ft. $569
2017-06-15 Condo 2176 Luz Ave San Jose, CA 95116 $398,888 956 sq. ft. 976 sq. ft. $417
2017-06-15 Condo 1040 Lincoln Village Dr San Jose, CA 95125 $849,000 1,319 sq. ft. 3,058 sq. ft. $644
2017-06-15 Condo English 848 Georgetown Pl San Jose, CA 95126 $949,000 1,859 sq. ft. 1,006 sq. ft. $510
2017-06-15 Condo 503 Golfview Dr San Jose, CA 95127 $679,000 1,640 sq. ft. 2,082 sq. ft. $414
2017-06-15 Condo 1133 Quail Run Ct San Jose, CA 95118 $715,000 1,420 sq. ft. 1,442 sq. ft. $504
2017-06-15 Condo 5428 Cribari Ct San Jose, CA 95135 $475,000 1,240 sq. ft. 1,664 sq. ft. $383
2017-06-15 Condo Contemporary 5214 Jacana Ln San Jose, CA 95123 $600,000 1,142 sq. ft. 1,821 sq. ft. $525
2017-06-15 Condo Mediterranean 516 Martha St 106 San Jose, CA 95112 $495,000 742 sq. ft. 745 sq. ft. $667
2017-06-15 Condo 5486 Don Andres Way San Jose, CA 95123 $449,950 884 sq. ft. 2,082 sq. ft. $509
2017-06-15 Condo 1137 Cooper River Dr San Jose, CA 95126 $748,888 1,150 sq. ft. 1,150 sq. ft. $651
2017-06-14 Condo 7680 Galloway Dr San Jose, CA 95135 $778,000 1,751 sq. ft. $444
2017-06-14 Condo 134 Monte Verano Ct San Jose, CA 95116 $379,000 902 sq. ft. 1,812 sq. ft. $420
2017-06-14 Condo 7079 Cypress Point Ct San Jose, CA 95139 $590,000 1,656 sq. ft. 2,113 sq. ft. $356
2017-06-14 Condo Contemporary 7714 Galloway Dr San Jose, CA 95135 $615,000 1,490 sq. ft. 436 sq. ft. $413
2017-06-14 Condo 721 Modern Ice Dr San Jose, CA 95112 $698,000 1,330 sq. ft. 1,342 sq. ft. $525
2017-06-14 Condo 4260 Ballatore Dr San Jose, CA 95134 $935,000 1,405 sq. ft. 871 sq. ft. $665
2017-06-14 Condo 106 Monte Verano Ct San Jose, CA 95116 $299,000 597 sq. ft. 1,812 sq. ft. $501
2017-06-14 Condo 415 Capricorn Ct San Jose, CA 95111 $399,000 1,197 sq. ft. 1,459 sq. ft. $333
2017-06-13 Condo 4551 Huntington Ln San Jose, CA 95136 $853,990 1,990 sq. ft. 1,660 sq. ft. $429
2017-06-13 Condo 4575 Huntington Ln San Jose, CA 95136 $856,990 2,009 sq. ft. 1,246 sq. ft. $427
2017-06-13 Condo 5703 Makati Cir C San Jose, CA 95123 $499,000 995 sq. ft. $502
2017-06-13 Condo Contemporary 1477 W San Carlos St San Jose, CA 95126 $797,000 1,468 sq. ft. 1,912 sq. ft. $543
2017-06-13 Condo Traditional 8600 Vineyard Creek Ct San Jose, CA 95135 $725,000 1,415 sq. ft. 436 sq. ft. $512
2017-06-13 Condo 2136 Sheffield Dr San Jose, CA 95131 $848,950 1,376 sq. ft. 2,026 sq. ft. $617
2017-06-13 Condo 2180 Mendocino Ln San Jose, CA 95124 $849,000 1,464 sq. ft. 1,407 sq. ft. $580
2017-06-13 Condo 410 Auburn Way 11 San Jose, CA 95129 $518,000 1,099 sq. ft. 549 sq. ft. $471
2017-06-13 Condo 951 S 12th St 104 San Jose, CA 95112 $499,000 1,277 sq. ft. 1,276 sq. ft. $391
2017-06-13 Condo 490 Auburn Way 9 San Jose, CA 95129 $579,950 1,099 sq. ft. 549 sq. ft. $528
2017-06-13 Condo 47 Silcreek Dr San Jose, CA 95116 $468,888 1,318 sq. ft. 436 sq. ft. $356
2017-06-13 Condo 217 Banana Grove Ln San Jose, CA 95123 $599,950 1,166 sq. ft. 1,873 sq. ft. $515
2017-06-12 Condo Contemporary 2738 Goble Ln 1 San Jose, CA 95111 $749,000 1,452 sq. ft. 1,433 sq. ft. $516
2017-06-12 Condo 5034 Cribari Vale San Jose, CA 95135 $434,950 1,223 sq. ft. 1,664 sq. ft. $356
2017-06-12 Condo 411 Park Ave 219 San Jose, CA 95110 $548,000 1,048 sq. ft. 1,742 sq. ft. $523
2017-06-12 Condo 1558 Alma Terrace San Jose, CA 95125 $569,000 1,071 sq. ft. 436 sq. ft. $531
2017-06-12 Condo 101 Bob Hansen Ct San Jose, CA 95116 $530,000 1,272 sq. ft. 1,664 sq. ft. $417
2017-06-12 Condo Contemporary 7529 Morevern Cir San Jose, CA 95135 $721,000 1,572 sq. ft. 2,082 sq. ft. $459
2017-06-12 Condo 97 E Saint James St 38 San Jose, CA 95112 $599,000 1,203 sq. ft. 436 sq. ft. $498
2017-06-12 Condo Contemporary 354 Powerscourt Way San Jose, CA 95136 $735,000 1,568 sq. ft. 1,568 sq. ft. $469
2017-06-11 Condo 172 Oakbrook Cir Cl San Jose, CA 95139 $488,888 1,008 sq. ft. 1,041 sq. ft. $485